Portada
METAR-TAF:

METAR-TAF

Aeroports :

Diego Garcia, Territori Britànic de l'Oceà Índic

latitud: 07-18S, longitud: 072-24E, altitud: 1 m

Observació

L'informe es va fer fa 37 minuts, a les 18:55 UTC
Vent 5 kt del Oest/Nord-Oest
Temperatura 28°C
Humitat 84%
Pressió 1011 hPa
Visibilitat 10 km o més
Escasses núvols a una alçada de 2000 ft
Núvols disperses a una alçada de 25000 ft

METAR: FJDG 281855Z 30005KT 9999 FEW020 SCT250 28/25 A2986 RMK SLP108 T02840253

Hora: 01:32 (19:32 UTC)

Pronòstic

L'informe es va fer fa 2 hores i 32 minuts, a les 17:00 UTC
Pronòstic vàlid del 28 a les 17 UTC al 01 a les 23 UTC
Vent 9 kt del Oest/Nord-Oest
Visibilitat 10 km o més
Núvols disperses a una alçada de 3000 ft

TAF: FJDG 281700Z 2817/0123 30009KT 9999 SCT030 QNH2970INS TX34/0107Z TN26/0100Z

Observacions i pronòstics meteorològics de més de 4000 aeroports (METAR i TAF).

Les estacions disponibles són els punts grocs i vermells al mapa.

Posi el ratolí al punt desitjat per veure el nom de l'estació.

Feu clic per veure les observacions i els pronòstics meteorològics.

Per canviar el mapa: feu clic els botons verds amb una creu de color negre per apropar; al botó verd amb un guió per allunyar la imatge; o en les fletxes verdes per a mapes adjacents.


METAR-TAF: